sensor_id;sensor_type;location;lat;lon;timestamp;pressure;altitude;pressure_sealevel;temperature;humidity
7832;BME280;3961;42.058;25.586;2023-04-03T00:01:09;63353.00;;;10.07;88.26
7832;BME280;3961;42.058;25.586;2023-04-03T00:03:35;63368.03;;;10.20;90.72
7832;BME280;3961;42.058;25.586;2023-04-03T00:06:02;63361.31;;;10.17;91.63
7832;BME280;3961;42.058;25.586;2023-04-03T00:08:28;63371.16;;;10.25;91.25
7832;BME280;3961;42.058;25.586;2023-04-03T00:10:56;63356.69;;;10.13;92.34
7832;BME280;3961;42.058;25.586;2023-04-03T00:13:23;63368.03;;;10.20;92.62
7832;BME280;3961;42.058;25.586;2023-04-03T00:15:49;63330.25;;;9.85;93.73
7832;BME280;3961;42.058;25.586;2023-04-03T00:18:14;63334.19;;;9.93;94.22
7832;BME280;3961;42.058;25.586;2023-04-03T00:20:40;63333.38;;;9.90;94.49
7832;BME280;3961;42.058;25.586;2023-04-03T00:23:05;63359.00;;;10.15;93.32
7832;BME280;3961;42.058;25.586;2023-04-03T00:25:31;63360.72;;;10.16;91.40
7832;BME280;3961;42.058;25.586;2023-04-03T00:27:57;63303.63;;;9.66;93.53
7832;BME280;3961;42.058;25.586;2023-04-03T00:30:23;63315.94;;;9.79;93.70
7832;BME280;3961;42.058;25.586;2023-04-03T00:32:49;63311.91;;;9.75;93.23
7832;BME280;3961;42.058;25.586;2023-04-03T00:35:16;63335.34;;;9.94;92.56
7832;BME280;3961;42.058;25.586;2023-04-03T00:37:42;63362.47;;;10.18;91.82
7832;BME280;3961;42.058;25.586;2023-04-03T00:40:09;63366.88;;;10.19;90.06
7832;BME280;3961;42.058;25.586;2023-04-03T00:42:36;63366.53;;;10.21;89.85
7832;BME280;3961;42.058;25.586;2023-04-03T00:47:29;63349.78;;;10.06;90.04
7832;BME280;3961;42.058;25.586;2023-04-03T00:49:55;63349.78;;;10.06;89.78
7832;BME280;3961;42.058;25.586;2023-04-03T00:52:27;63384.78;;;10.35;89.23
7832;BME280;3961;42.058;25.586;2023-04-03T00:54:57;63370.00;;;10.24;89.29
7832;BME280;3961;42.058;25.586;2023-04-03T00:57:23;63328.19;;;9.85;90.85
7832;BME280;3961;42.058;25.586;2023-04-03T00:59:53;63361.66;;;10.15;90.02
7832;BME280;3961;42.058;25.586;2023-04-03T01:02:20;63333.94;;;9.90;89.66
7832;BME280;3961;42.058;25.586;2023-04-03T01:04:46;63345.16;;;10.02;89.43
7832;BME280;3961;42.058;25.586;2023-04-03T01:07:16;63326.09;;;9.86;90.03
7832;BME280;3961;42.058;25.586;2023-04-03T01:09:43;63335.34;;;9.94;89.42
7832;BME280;3961;42.058;25.586;2023-04-03T01:12:30;63265.78;;;9.35;92.38
7832;BME280;3961;42.058;25.586;2023-04-03T01:15:04;63286.63;;;9.49;93.67
7832;BME280;3961;42.058;25.586;2023-04-03T01:17:35;63301.06;;;9.61;93.47
7832;BME280;3961;42.058;25.586;2023-04-03T01:20:18;63284.31;;;9.47;93.28
7832;BME280;3961;42.058;25.586;2023-04-03T01:25:19;63269.34;;;9.33;94.25
7832;BME280;3961;42.058;25.586;2023-04-03T01:27:44;63229.78;;;9.01;95.66
7832;BME280;3961;42.058;25.586;2023-04-03T01:30:11;63221.13;;;8.93;96.01
7832;BME280;3961;42.058;25.586;2023-04-03T01:32:38;63246.03;;;9.10;96.74
7832;BME280;3961;42.058;25.586;2023-04-03T01:35:03;63255.72;;;9.24;96.29
7832;BME280;3961;42.058;25.586;2023-04-03T01:37:29;63247.06;;;9.16;95.69
7832;BME280;3961;42.058;25.586;2023-04-03T01:39:54;63269.59;;;9.36;95.17
7832;BME280;3961;42.058;25.586;2023-04-03T01:42:20;63284.22;;;9.51;94.05
7832;BME280;3961;42.058;25.586;2023-04-03T01:44:46;63294.94;;;9.58;93.04
7832;BME280;3961;42.058;25.586;2023-04-03T01:47:11;63302.22;;;9.62;92.05
7832;BME280;3961;42.058;25.586;2023-04-03T01:49:37;63310.78;;;9.74;91.63
7832;BME280;3961;42.058;25.586;2023-04-03T01:52:03;63303.63;;;9.66;92.21
7832;BME280;3961;42.058;25.586;2023-04-03T01:54:28;63257.13;;;9.27;90.89
7832;BME280;3961;42.058;25.586;2023-04-03T01:56:53;63309.97;;;9.71;91.00
7832;BME280;3961;42.058;25.586;2023-04-03T01:59:19;63323.47;;;9.86;90.03
7832;BME280;3961;42.058;25.586;2023-04-03T02:01:45;63303.63;;;9.66;90.20
7832;BME280;3961;42.058;25.586;2023-04-03T02:04:11;63316.88;;;9.77;90.00
7832;BME280;3961;42.058;25.586;2023-04-03T02:06:37;63311.13;;;9.72;90.03
7832;BME280;3961;42.058;25.586;2023-04-03T02:09:03;63310.53;;;9.72;89.80
7832;BME280;3961;42.058;25.586;2023-04-03T02:11:29;63281.44;;;9.44;90.96
7832;BME280;3961;42.058;25.586;2023-04-03T02:13:55;63284.91;;;9.47;91.08
7832;BME280;3961;42.058;25.586;2023-04-03T02:16:20;63306.84;;;9.66;90.78
7832;BME280;3961;42.058;25.586;2023-04-03T02:18:46;63302.47;;;9.65;89.96
7832;BME280;3961;42.058;25.586;2023-04-03T02:21:11;63336.59;;;9.90;88.69
7832;BME280;3961;42.058;25.586;2023-04-03T02:23:37;63310.06;;;9.67;88.70
7832;BME280;3961;42.058;25.586;2023-04-03T02:26:08;63262.91;;;9.32;90.54
7832;BME280;3961;42.058;25.586;2023-04-03T02:28:34;63283.66;;;9.51;90.91
7832;BME280;3961;42.058;25.586;2023-04-03T02:31:00;63290.34;;;9.54;90.46
7832;BME280;3961;42.058;25.586;2023-04-03T02:33:25;63268.44;;;9.35;91.39
7832;BME280;3961;42.058;25.586;2023-04-03T02:35:55;63280.28;;;9.43;90.48
7832;BME280;3961;42.058;25.586;2023-04-03T02:38:21;63317.00;;;9.73;89.09
7832;BME280;3961;42.058;25.586;2023-04-03T02:40:47;63277.63;;;9.43;89.47
7832;BME280;3961;42.058;25.586;2023-04-03T02:43:13;63291.72;;;9.58;89.00
7832;BME280;3961;42.058;25.586;2023-04-03T02:45:38;63265.88;;;9.30;89.29
7832;BME280;3961;42.058;25.586;2023-04-03T02:48:04;63248.81;;;9.18;90.82
7832;BME280;3961;42.058;25.586;2023-04-03T02:50:30;63258.84;;;9.29;92.08
7832;BME280;3961;42.058;25.586;2023-04-03T02:52:55;63236.38;;;9.09;92.36
7832;BME280;3961;42.058;25.586;2023-04-03T02:55:20;63250.53;;;9.19;91.98
7832;BME280;3961;42.058;25.586;2023-04-03T02:57:46;63256.88;;;9.25;91.04
7832;BME280;3961;42.058;25.586;2023-04-03T03:00:12;63269.59;;;9.36;89.88
7832;BME280;3961;42.058;25.586;2023-04-03T03:02:38;63221.47;;;8.91;91.25
7832;BME280;3961;42.058;25.586;2023-04-03T03:05:04;63224.69;;;8.92;93.35
7832;BME280;3961;42.058;25.586;2023-04-03T03:07:30;63224.25;;;8.98;92.64
7832;BME280;3961;42.058;25.586;2023-04-03T03:09:55;63212.50;;;8.86;91.66
7832;BME280;3961;42.058;25.586;2023-04-03T03:12:21;63266.22;;;9.28;91.45
7832;BME280;3961;42.058;25.586;2023-04-03T03:14:48;63243.97;;;9.11;91.50
7832;BME280;3961;42.058;25.586;2023-04-03T03:17:13;63263.47;;;9.33;90.77
7832;BME280;3961;42.058;25.586;2023-04-03T03:19:39;63261.50;;;9.29;89.99
7832;BME280;3961;42.058;25.586;2023-04-03T03:22:04;63249.25;;;9.11;90.71
7832;BME280;3961;42.058;25.586;2023-04-03T03:24:30;63290.56;;;9.57;89.42
7832;BME280;3961;42.058;25.586;2023-04-03T03:26:55;63274.41;;;9.42;88.59
7832;BME280;3961;42.058;25.586;2023-04-03T03:29:21;63255.97;;;9.26;89.06
7832;BME280;3961;42.058;25.586;2023-04-03T03:31:46;63232.69;;;9.03;90.12
7832;BME280;3961;42.058;25.586;2023-04-03T03:34:12;63290.91;;;9.55;88.84
7832;BME280;3961;42.058;25.586;2023-04-03T03:36:38;63182.88;;;8.57;90.70
7832;BME280;3961;42.058;25.586;2023-04-03T03:39:04;63231.53;;;9.02;90.91
7832;BME280;3961;42.058;25.586;2023-04-03T03:41:29;63220.31;;;8.90;92.05
7832;BME280;3961;42.058;25.586;2023-04-03T03:43:55;63225.19;;;8.97;90.39
7832;BME280;3961;42.058;25.586;2023-04-03T03:46:20;63191.75;;;8.67;93.46
7832;BME280;3961;42.058;25.586;2023-04-03T03:48:46;63186.00;;;8.62;95.13
7832;BME280;3961;42.058;25.586;2023-04-03T03:51:11;63203.16;;;8.82;94.11
7832;BME280;3961;42.058;25.586;2023-04-03T03:53:37;63209.03;;;8.83;93.34
7832;BME280;3961;42.058;25.586;2023-04-03T03:56:03;63226.91;;;8.98;92.94
7832;BME280;3961;42.058;25.586;2023-04-03T03:58:29;63244.78;;;9.14;93.08
7832;BME280;3961;42.058;25.586;2023-04-03T04:00:54;63240.50;;;9.08;93.80
7832;BME280;3961;42.058;25.586;2023-04-03T04:03:20;63209.28;;;8.85;93.39
7832;BME280;3961;42.058;25.586;2023-04-03T04:05:46;63244.78;;;9.14;93.39
7832;BME280;3961;42.058;25.586;2023-04-03T04:08:12;63209.28;;;8.85;94.55
7832;BME280;3961;42.058;25.586;2023-04-03T04:10:38;63235.00;;;9.05;94.21
7832;BME280;3961;42.058;25.586;2023-04-03T04:13:03;63228.97;;;8.98;94.42
7832;BME280;3961;42.058;25.586;2023-04-03T04:15:29;63221.63;;;8.98;94.51
7832;BME280;3961;42.058;25.586;2023-04-03T04:17:54;63236.03;;;9.11;93.38
7832;BME280;3961;42.058;25.586;2023-04-03T04:20:20;63234.41;;;9.05;93.92
7832;BME280;3961;42.058;25.586;2023-04-03T04:22:46;63243.97;;;9.11;93.12
7832;BME280;3961;42.058;25.586;2023-04-03T04:25:11;63237.28;;;9.07;93.91
7832;BME280;3961;42.058;25.586;2023-04-03T04:27:37;63243.97;;;9.11;93.19
7832;BME280;3961;42.058;25.586;2023-04-03T04:30:03;63221.97;;;8.96;93.63
7832;BME280;3961;42.058;25.586;2023-04-03T04:32:29;63254.91;;;9.21;93.33
7832;BME280;3961;42.058;25.586;2023-04-03T04:34:55;63254.34;;;9.20;92.33
7832;BME280;3961;42.058;25.586;2023-04-03T04:37:20;63269.59;;;9.36;91.76
7832;BME280;3961;42.058;25.586;2023-04-03T04:39:46;63264.63;;;9.34;91.11
7832;BME280;3961;42.058;25.586;2023-04-03T04:42:11;63261.75;;;9.31;90.94
7832;BME280;3961;42.058;25.586;2023-04-03T04:44:38;63268.44;;;9.35;91.42
7832;BME280;3961;42.058;25.586;2023-04-03T04:47:04;63282.34;;;9.42;91.68
7832;BME280;3961;42.058;25.586;2023-04-03T04:49:30;63305.69;;;9.65;89.54
7832;BME280;3961;42.058;25.586;2023-04-03T04:51:56;63302.69;;;9.67;89.04
7832;BME280;3961;42.058;25.586;2023-04-03T04:54:21;63320.09;;;9.78;89.78
7832;BME280;3961;42.058;25.586;2023-04-03T04:56:47;63308.81;;;9.70;89.84
7832;BME280;3961;42.058;25.586;2023-04-03T04:59:12;63276.97;;;9.47;91.70
7832;BME280;3961;42.058;25.586;2023-04-03T05:01:38;63280.53;;;9.46;91.42
7832;BME280;3961;42.058;25.586;2023-04-03T05:04:04;63331.88;;;9.91;90.59
7832;BME280;3961;42.058;25.586;2023-04-03T05:06:29;63311.00;;;9.77;90.61
7832;BME280;3961;42.058;25.586;2023-04-03T05:08:57;63326.09;;;9.86;90.31
7832;BME280;3961;42.058;25.586;2023-04-03T05:11:23;63338.56;;;9.94;89.92
7832;BME280;3961;42.058;25.586;2023-04-03T05:13:49;63323.47;;;9.86;89.86
7832;BME280;3961;42.058;25.586;2023-04-03T05:16:15;63315.50;;;9.74;89.96
7832;BME280;3961;42.058;25.586;2023-04-03T05:18:40;63339.50;;;9.93;90.12
7832;BME280;3961;42.058;25.586;2023-04-03T05:21:06;63321.81;;;9.80;89.47
7832;BME280;3961;42.058;25.586;2023-04-03T05:23:31;63303.63;;;9.66;91.65
7832;BME280;3961;42.058;25.586;2023-04-03T05:25:57;63284.00;;;9.49;91.96
7832;BME280;3961;42.058;25.586;2023-04-03T05:28:22;63333.63;;;9.92;90.01
7832;BME280;3961;42.058;25.586;2023-04-03T05:30:55;63299.56;;;9.62;90.27
7832;BME280;3961;42.058;25.586;2023-04-03T05:33:24;63278.78;;;9.44;92.95
7832;BME280;3961;42.058;25.586;2023-04-03T05:35:49;63335.09;;;9.91;90.21
7832;BME280;3961;42.058;25.586;2023-04-03T05:38:15;63322.63;;;9.83;91.27
7832;BME280;3961;42.058;25.586;2023-04-03T05:40:40;63357.50;;;10.16;89.12
7832;BME280;3961;42.058;25.586;2023-04-03T05:43:06;63362.47;;;10.18;86.74
7832;BME280;3961;42.058;25.586;2023-04-03T05:45:31;63402.31;;;10.53;86.48
7832;BME280;3961;42.058;25.586;2023-04-03T05:47:57;63411.34;;;10.58;83.90
7832;BME280;3961;42.058;25.586;2023-04-03T05:50:23;63440.44;;;10.86;84.24
7832;BME280;3961;42.058;25.586;2023-04-03T05:52:50;63431.78;;;10.78;83.65
7832;BME280;3961;42.058;25.586;2023-04-03T05:55:19;63474.88;;;11.14;82.70
7832;BME280;3961;42.058;25.586;2023-04-03T05:57:45;63466.69;;;11.11;82.12
7832;BME280;3961;42.058;25.586;2023-04-03T06:00:14;63491.31;;;11.31;79.56
7832;BME280;3961;42.058;25.586;2023-04-03T06:02:42;63499.38;;;11.38;82.42
7832;BME280;3961;42.058;25.586;2023-04-03T06:05:08;63494.78;;;11.34;81.35
7832;BME280;3961;42.058;25.586;2023-04-03T06:07:36;63565.91;;;11.96;82.90
7832;BME280;3961;42.058;25.586;2023-04-03T06:10:02;63757.34;;;13.62;69.39
7832;BME280;3961;42.058;25.586;2023-04-03T06:12:28;63803.22;;;14.09;64.14
7832;BME280;3961;42.058;25.586;2023-04-03T06:14:56;63624.34;;;12.48;69.93
7832;BME280;3961;42.058;25.586;2023-04-03T06:17:22;63604.09;;;12.30;71.71
7832;BME280;3961;42.058;25.586;2023-04-03T06:19:49;63586.63;;;12.19;73.60
7832;BME280;3961;42.058;25.586;2023-04-03T06:22:14;63575.50;;;12.02;74.22
7832;BME280;3961;42.058;25.586;2023-04-03T06:24:40;63583.25;;;12.11;73.81
7832;BME280;3961;42.058;25.586;2023-04-03T06:27:07;63573.78;;;12.01;74.54
7832;BME280;3961;42.058;25.586;2023-04-03T06:29:32;63640.91;;;12.60;77.75
7832;BME280;3961;42.058;25.586;2023-04-03T06:31:58;63936.56;;;15.19;73.46
7832;BME280;3961;42.058;25.586;2023-04-03T06:34:23;64082.19;;;16.43;66.32
7832;BME280;3961;42.058;25.586;2023-04-03T06:36:49;63873.88;;;14.64;62.36
7832;BME280;3961;42.058;25.586;2023-04-03T06:39:18;63948.19;;;15.29;67.98
7832;BME280;3961;42.058;25.586;2023-04-03T06:41:46;63842.53;;;14.36;62.15
7832;BME280;3961;42.058;25.586;2023-04-03T06:44:12;63804.63;;;14.01;65.40
7832;BME280;3961;42.058;25.586;2023-04-03T06:46:41;63773.78;;;13.78;66.42
7832;BME280;3961;42.058;25.586;2023-04-03T06:49:07;63726.84;;;13.37;69.58
7832;BME280;3961;42.058;25.586;2023-04-03T06:51:33;63641.81;;;12.58;73.87
7832;BME280;3961;42.058;25.586;2023-04-03T06:54:00;63599.81;;;12.24;75.87
7832;BME280;3961;42.058;25.586;2023-04-03T06:56:26;63616.59;;;12.38;76.44
7832;BME280;3961;42.058;25.586;2023-04-03T06:58:53;63627.00;;;12.48;78.30
7832;BME280;3961;42.058;25.586;2023-04-03T07:01:20;63596.09;;;12.18;78.19
7832;BME280;3961;42.058;25.586;2023-04-03T07:03:47;63624.00;;;12.50;77.83
7832;BME280;3961;42.058;25.586;2023-04-03T07:06:14;63640.31;;;12.59;77.24
7832;BME280;3961;42.058;25.586;2023-04-03T07:08:40;63635.94;;;12.58;78.05
7832;BME280;3961;42.058;25.586;2023-04-03T07:11:08;63675.53;;;12.95;76.74
7832;BME280;3961;42.058;25.586;2023-04-03T07:13:34;63714.13;;;13.26;74.75
7832;BME280;3961;42.058;25.586;2023-04-03T07:16:00;63706.94;;;13.18;75.90
7832;BME280;3961;42.058;25.586;2023-04-03T07:18:25;63752.69;;;13.58;73.39
7832;BME280;3961;42.058;25.586;2023-04-03T07:20:51;63767.41;;;13.73;73.73
7832;BME280;3961;42.058;25.586;2023-04-03T07:23:18;63760.09;;;13.69;73.19
7832;BME280;3961;42.058;25.586;2023-04-03T07:25:47;63770.66;;;13.73;71.63
7832;BME280;3961;42.058;25.586;2023-04-03T07:28:14;63796.03;;;14.00;72.14
7832;BME280;3961;42.058;25.586;2023-04-03T07:30:47;63826.91;;;14.23;70.83
7832;BME280;3961;42.058;25.586;2023-04-03T07:33:14;63826.09;;;14.20;70.25
7832;BME280;3961;42.058;25.586;2023-04-03T07:35:41;63848.94;;;14.42;69.52
7832;BME280;3961;42.058;25.586;2023-04-03T07:38:07;63827.72;;;14.26;68.18
7832;BME280;3961;42.058;25.586;2023-04-03T07:40:32;63842.19;;;14.38;69.96
7832;BME280;3961;42.058;25.586;2023-04-03T07:42:58;63828.28;;;14.26;69.23
7832;BME280;3961;42.058;25.586;2023-04-03T07:45:25;63832.69;;;14.28;69.80
7832;BME280;3961;42.058;25.586;2023-04-03T07:47:50;63802.19;;;14.03;68.59
7832;BME280;3961;42.058;25.586;2023-04-03T07:50:17;63860.56;;;14.52;68.80
7832;BME280;3961;42.058;25.586;2023-04-03T07:52:42;63817.63;;;14.15;70.86
7832;BME280;3961;42.058;25.586;2023-04-03T07:55:08;63877.94;;;14.67;70.65
7832;BME280;3961;42.058;25.586;2023-04-03T07:57:33;63907.91;;;14.91;68.96
7832;BME280;3961;42.058;25.586;2023-04-03T07:59:59;63892.69;;;14.83;69.27
7832;BME280;3961;42.058;25.586;2023-04-03T08:02:24;63916.25;;;15.01;67.63
7832;BME280;3961;42.058;25.586;2023-04-03T08:04:50;63900.25;;;14.89;67.72
7832;BME280;3961;42.058;25.586;2023-04-03T08:07:16;63875.06;;;14.65;69.99
7832;BME280;3961;42.058;25.586;2023-04-03T08:09:41;63912.41;;;15.00;69.08
7832;BME280;3961;42.058;25.586;2023-04-03T08:12:07;63920.66;;;15.02;66.72
7832;BME280;3961;42.058;25.586;2023-04-03T08:14:33;63973.16;;;15.51;64.81
7832;BME280;3961;42.058;25.586;2023-04-03T08:17:01;63988.84;;;15.64;65.15
7832;BME280;3961;42.058;25.586;2023-04-03T08:19:29;63993.16;;;15.70;63.94
7832;BME280;3961;42.058;25.586;2023-04-03T08:21:54;64020.78;;;15.92;63.40
7832;BME280;3961;42.058;25.586;2023-04-03T08:24:20;64033.22;;;16.05;63.69
7832;BME280;3961;42.058;25.586;2023-04-03T08:26:46;64036.50;;;16.06;62.85
7832;BME280;3961;42.058;25.586;2023-04-03T08:29:11;64060.53;;;16.29;62.43
7832;BME280;3961;42.058;25.586;2023-04-03T08:31:37;64064.97;;;16.31;62.71
7832;BME280;3961;42.058;25.586;2023-04-03T08:34:02;64068.09;;;16.36;63.10
7832;BME280;3961;42.058;25.586;2023-04-03T08:36:29;64042.66;;;16.09;62.09
7832;BME280;3961;42.058;25.586;2023-04-03T08:38:55;64044.28;;;16.15;63.37
7832;BME280;3961;42.058;25.586;2023-04-03T08:41:38;64069.03;;;16.34;62.78
7832;BME280;3961;42.058;25.586;2023-04-03T08:49:48;64049.94;;;16.25;63.89
7832;BME280;3961;42.058;25.586;2023-04-03T08:52:38;63945.88;;;15.27;68.31
7832;BME280;3961;42.058;25.586;2023-04-03T08:55:07;63960.97;;;15.40;68.44
7832;BME280;3961;42.058;25.586;2023-04-03T08:57:40;64021.16;;;15.90;67.00
7832;BME280;3961;42.058;25.586;2023-04-03T09:02:44;64074.84;;;16.39;64.42
7832;BME280;3961;42.058;25.586;2023-04-03T09:05:32;64083.09;;;16.42;63.85
7832;BME280;3961;42.058;25.586;2023-04-03T09:11:25;64064.38;;;16.30;63.86
7832;BME280;3961;42.058;25.586;2023-04-03T09:14:02;64044.63;;;16.13;65.14
7832;BME280;3961;42.058;25.586;2023-04-03T09:16:39;64036.13;;;16.08;65.78
7832;BME280;3961;42.058;25.586;2023-04-03T09:19:26;64017.31;;;15.89;65.88
7832;BME280;3961;42.058;25.586;2023-04-03T09:22:00;64028.56;;;16.01;65.54
7832;BME280;3961;42.058;25.586;2023-04-03T09:24:28;63990.59;;;15.66;66.72
7832;BME280;3961;42.058;25.586;2023-04-03T09:27:14;64035.91;;;16.05;66.36
7832;BME280;3961;42.058;25.586;2023-04-03T09:29:42;64035.78;;;16.10;65.34
7832;BME280;3961;42.058;25.586;2023-04-03T09:32:37;64035.91;;;16.05;66.01
7832;BME280;3961;42.058;25.586;2023-04-03T09:35:20;64027.53;;;15.96;65.97
7832;BME280;3961;42.058;25.586;2023-04-03T09:37:48;64028.94;;;15.99;65.58
7832;BME280;3961;42.058;25.586;2023-04-03T09:42:59;64028.56;;;16.01;67.87
7832;BME280;3961;42.058;25.586;2023-04-03T09:45:35;64003.59;;;15.79;68.79
7832;BME280;3961;42.058;25.586;2023-04-03T09:51:00;63996.63;;;15.73;68.36
7832;BME280;3961;42.058;25.586;2023-04-03T09:55:52;64032.78;;;16.00;69.67
7832;BME280;3961;42.058;25.586;2023-04-03T09:58:33;64008.25;;;15.84;71.21
7832;BME280;3961;42.058;25.586;2023-04-03T10:01:00;63986.88;;;15.60;73.79
7832;BME280;3961;42.058;25.586;2023-04-03T10:03:32;63972.34;;;15.48;74.89
7832;BME280;3961;42.058;25.586;2023-04-03T10:05:58;63986.75;;;15.65;75.02
7832;BME280;3961;42.058;25.586;2023-04-03T10:08:30;63990.34;;;15.63;77.00
7832;BME280;3961;42.058;25.586;2023-04-03T10:11:25;64008.03;;;15.81;78.35
7832;BME280;3961;42.058;25.586;2023-04-03T10:13:59;63995.47;;;15.72;78.11
7832;BME280;3961;42.058;25.586;2023-04-03T10:16:31;64008.50;;;15.86;77.32
7832;BME280;3961;42.058;25.586;2023-04-03T10:21:47;63958.28;;;15.40;80.22
7832;BME280;3961;42.058;25.586;2023-04-03T10:24:25;63965.03;;;15.43;82.29
7832;BME280;3961;42.058;25.586;2023-04-03T10:27:02;63973.16;;;15.51;81.98
7832;BME280;3961;42.058;25.586;2023-04-03T10:32:55;63964.91;;;15.48;83.07
7832;BME280;3961;42.058;25.586;2023-04-03T10:41:31;63943.56;;;15.25;87.36
7832;BME280;3961;42.058;25.586;2023-04-03T10:46:38;63968.16;;;15.49;85.92
7832;BME280;3961;42.058;25.586;2023-04-03T10:51:53;63978.75;;;15.53;88.22
7832;BME280;3961;42.058;25.586;2023-04-03T10:59:49;64048.69;;;16.17;89.23
7832;BME280;3961;42.058;25.586;2023-04-03T11:02:26;64053.56;;;16.23;90.89
7832;BME280;3961;42.058;25.586;2023-04-03T11:04:59;63985.00;;;15.63;91.99
7832;BME280;3961;42.058;25.586;2023-04-03T11:07:29;64045.56;;;16.11;89.99
7832;BME280;3961;42.058;25.586;2023-04-03T11:10:03;64050.09;;;16.20;90.47
7832;BME280;3961;42.058;25.586;2023-04-03T11:12:46;64051.59;;;16.19;90.68
7832;BME280;3961;42.058;25.586;2023-04-03T11:15:16;64059.03;;;16.30;90.77
7832;BME280;3961;42.058;25.586;2023-04-03T11:17:49;64072.75;;;16.40;91.57
7832;BME280;3961;42.058;25.586;2023-04-03T11:20:20;64074.63;;;16.37;91.48
7832;BME280;3961;42.058;25.586;2023-04-03T11:23:05;64050.09;;;16.20;89.73
7832;BME280;3961;42.058;25.586;2023-04-03T11:25:33;64001.88;;;15.78;93.50
7832;BME280;3961;42.058;25.586;2023-04-03T11:28:02;64023.34;;;15.97;92.34
7832;BME280;3961;42.058;25.586;2023-04-03T11:33:28;64035.91;;;16.05;93.95
7832;BME280;3961;42.058;25.586;2023-04-03T11:36:03;64004.88;;;15.76;97.46
7832;BME280;3961;42.058;25.586;2023-04-03T11:38:33;63988.72;;;15.69;96.18
7832;BME280;3961;42.058;25.586;2023-04-03T11:41:06;64022.31;;;15.91;99.12
7832;BME280;3961;42.058;25.586;2023-04-03T11:43:33;63977.47;;;15.57;100.00
7832;BME280;3961;42.058;25.586;2023-04-03T11:46:05;63962.69;;;15.41;100.00
7832;BME280;3961;42.058;25.586;2023-04-03T11:53:39;63952.47;;;15.35;100.00
7832;BME280;3961;42.058;25.586;2023-04-03T12:01:52;63893.84;;;14.84;100.00
7832;BME280;3961;42.058;25.586;2023-04-03T12:04:20;63874.69;;;14.67;100.00
7832;BME280;3961;42.058;25.586;2023-04-03T12:09:32;63826.31;;;14.22;100.00
7832;BME280;3961;42.058;25.586;2023-04-03T12:12:00;63841.16;;;14.33;100.00
7832;BME280;3961;42.058;25.586;2023-04-03T12:14:27;63788.88;;;13.92;100.00
7832;BME280;3961;42.058;25.586;2023-04-03T12:16:54;63802.53;;;14.01;100.00
7832;BME280;3961;42.058;25.586;2023-04-03T12:24:28;63788.53;;;13.94;100.00
7832;BME280;3961;42.058;25.586;2023-04-03T12:45:27;63847.44;;;14.43;100.00
7832;BME280;3961;42.058;25.586;2023-04-03T12:47:54;63821.69;;;14.18;100.00
7832;BME280;3961;42.058;25.586;2023-04-03T12:50:27;63810.31;;;14.10;100.00
7832;BME280;3961;42.058;25.586;2023-04-03T12:53:10;63834.66;;;14.32;100.00
7832;BME280;3961;42.058;25.586;2023-04-03T12:55:37;63834.06;;;14.31;100.00
7832;BME280;3961;42.058;25.586;2023-04-03T12:58:22;63828.66;;;14.24;100.00
7832;BME280;3961;42.058;25.586;2023-04-03T13:01:11;63822.25;;;14.19;100.00
7832;BME280;3961;42.058;25.586;2023-04-03T13:03:40;63827.13;;;14.25;100.00
7832;BME280;3961;42.058;25.586;2023-04-03T13:06:38;63830.38;;;14.26;100.00
7832;BME280;3961;42.058;25.586;2023-04-03T13:09:00;63838.13;;;14.35;100.00
7832;BME280;3961;42.058;25.586;2023-04-03T13:11:30;63844.28;;;14.38;100.00
7832;BME280;3961;42.058;25.586;2023-04-03T13:14:04;63861.72;;;14.53;100.00
7832;BME280;3961;42.058;25.586;2023-04-03T13:16:32;63840.22;;;14.34;100.00
7832;BME280;3961;42.058;25.586;2023-04-03T13:18:59;63820.75;;;14.20;100.00
7832;BME280;3961;42.058;25.586;2023-04-03T13:21:30;63841.84;;;14.40;100.00
7832;BME280;3961;42.058;25.586;2023-04-03T13:23:58;63820.88;;;14.15;100.00
7832;BME280;3961;42.058;25.586;2023-04-03T13:26:30;63821.91;;;14.21;100.00
7832;BME280;3961;42.058;25.586;2023-04-03T13:29:00;63835.13;;;14.25;100.00
7832;BME280;3961;42.058;25.586;2023-04-03T13:31:38;63811.47;;;14.11;100.00
7832;BME280;3961;42.058;25.586;2023-04-03T13:34:12;63849.41;;;14.47;100.00
7832;BME280;3961;42.058;25.586;2023-04-03T13:36:43;63835.81;;;14.33;100.00
7832;BME280;3961;42.058;25.586;2023-04-03T13:41:38;63870.63;;;14.63;100.00
7832;BME280;3961;42.058;25.586;2023-04-03T13:49:42;63833.50;;;14.31;100.00
7832;BME280;3961;42.058;25.586;2023-04-03T13:52:33;63842.78;;;14.39;100.00
7832;BME280;3961;42.058;25.586;2023-04-03T14:00:47;63823.41;;;14.20;100.00
7832;BME280;3961;42.058;25.586;2023-04-03T14:03:19;63795.81;;;13.98;100.00
7832;BME280;3961;42.058;25.586;2023-04-03T14:05:46;63799.06;;;13.98;100.00
7832;BME280;3961;42.058;25.586;2023-04-03T14:08:11;63779.94;;;13.82;100.00
7832;BME280;3961;42.058;25.586;2023-04-03T14:10:37;63775.88;;;13.78;100.00
7832;BME280;3961;42.058;25.586;2023-04-03T14:13:04;63770.31;;;13.75;100.00
7832;BME280;3961;42.058;25.586;2023-04-03T14:15:31;63780.50;;;13.82;100.00
7832;BME280;3961;42.058;25.586;2023-04-03T14:17:57;63778.09;;;13.85;100.00
7832;BME280;3961;42.058;25.586;2023-04-03T14:20:26;63801.03;;;14.02;100.00
7832;BME280;3961;42.058;25.586;2023-04-03T14:22:52;63798.94;;;14.03;100.00
7832;BME280;3961;42.058;25.586;2023-04-03T14:25:19;63780.16;;;13.84;100.00
7832;BME280;3961;42.058;25.586;2023-04-03T14:27:48;63814.94;;;14.15;100.00
7832;BME280;3961;42.058;25.586;2023-04-03T14:30:27;63823.06;;;14.22;100.00
7832;BME280;3961;42.058;25.586;2023-04-03T14:32:54;63791.19;;;13.94;100.00
7832;BME280;3961;42.058;25.586;2023-04-03T14:35:20;63820.53;;;14.17;100.00
7832;BME280;3961;42.058;25.586;2023-04-03T14:37:47;63788.63;;;13.89;100.00
7832;BME280;3961;42.058;25.586;2023-04-03T14:40:17;63810.66;;;14.08;100.00
7832;BME280;3961;42.058;25.586;2023-04-03T14:42:43;63791.19;;;13.94;100.00
7832;BME280;3961;42.058;25.586;2023-04-03T14:45:11;63819.00;;;14.18;100.00
7832;BME280;3961;42.058;25.586;2023-04-03T14:47:48;63786.19;;;13.92;100.00
7832;BME280;3961;42.058;25.586;2023-04-03T14:50:17;63805.09;;;14.06;100.00
7832;BME280;3961;42.058;25.586;2023-04-03T14:52:44;63798.47;;;13.98;100.00
7832;BME280;3961;42.058;25.586;2023-04-03T14:55:12;63790.03;;;13.93;100.00
7832;BME280;3961;42.058;25.586;2023-04-03T14:57:38;63788.88;;;13.92;100.00
7832;BME280;3961;42.058;25.586;2023-04-03T15:00:06;63795.22;;;13.97;100.00